createdAt,value
2022-11-13T00:00:24.722Z,11.10
2022-11-13T00:03:10.263Z,12.47
2022-11-13T00:06:02.379Z,8.10
2022-11-13T00:08:54.121Z,7.03
2022-11-13T00:11:39.199Z,4.00
2022-11-13T00:14:24.769Z,3.87
2022-11-13T00:17:10.127Z,3.23
2022-11-13T00:19:55.799Z,2.97
2022-11-13T00:22:41.221Z,2.93
2022-11-13T00:25:33.902Z,3.67
2022-11-13T00:28:19.063Z,5.03
2022-11-13T00:31:05.996Z,4.43
2022-11-13T00:36:56.906Z,3.83
2022-11-13T00:39:42.274Z,4.60
2022-11-13T00:42:27.869Z,5.20
2022-11-13T00:45:14.285Z,4.10
2022-11-13T00:48:08.609Z,4.27
2022-11-13T00:50:54.125Z,3.50
2022-11-13T00:53:39.372Z,4.00
2022-11-13T00:56:24.938Z,3.40
2022-11-13T00:59:10.735Z,3.60
2022-11-13T01:01:55.684Z,3.73
2022-11-13T01:04:52.620Z,3.30
2022-11-13T01:07:38.116Z,3.17
2022-11-13T01:10:24.885Z,2.60
2022-11-13T01:13:10.099Z,2.90
2022-11-13T01:15:55.456Z,2.90
2022-11-13T01:18:48.784Z,3.67
2022-11-13T01:21:34.034Z,3.30
2022-11-13T01:24:19.345Z,4.40
2022-11-13T01:27:07.429Z,5.20
2022-11-13T01:29:53.128Z,3.33
2022-11-13T01:32:38.690Z,4.60
2022-11-13T01:35:23.847Z,5.30
2022-11-13T01:38:09.414Z,4.23
2022-11-13T01:40:54.826Z,4.83
2022-11-13T01:43:47.585Z,3.73
2022-11-13T01:46:41.109Z,5.60
2022-11-13T01:49:34.861Z,4.20
2022-11-13T01:52:32.052Z,3.40
2022-11-13T01:55:32.828Z,3.90
2022-11-13T01:58:17.979Z,4.70
2022-11-13T02:01:03.385Z,3.27
2022-11-13T02:03:48.892Z,4.07
2022-11-13T02:06:43.027Z,4.07
2022-11-13T02:09:49.369Z,4.07
2022-11-13T02:12:37.189Z,2.73
2022-11-13T02:15:25.689Z,2.90
2022-11-13T02:18:11.397Z,3.07
2022-11-13T02:21:02.198Z,2.63
2022-11-13T02:24:12.001Z,3.33
2022-11-13T02:27:04.828Z,3.00
2022-11-13T02:29:49.878Z,3.67
2022-11-13T02:32:35.233Z,3.33
2022-11-13T02:35:27.043Z,5.50
2022-11-13T02:38:11.968Z,4.70
2022-11-13T02:40:57.269Z,5.20
2022-11-13T02:43:58.482Z,3.57
2022-11-13T02:46:44.161Z,4.27
2022-11-13T02:49:29.511Z,6.87
2022-11-13T02:52:14.916Z,5.37
2022-11-13T02:55:00.242Z,4.60
2022-11-13T02:57:45.294Z,4.60
2022-11-13T03:00:30.763Z,4.50
2022-11-13T03:03:24.827Z,3.57
2022-11-13T03:06:25.367Z,4.30
2022-11-13T03:09:10.645Z,3.80
2022-11-13T03:11:56.295Z,4.50
2022-11-13T03:14:41.400Z,7.27
2022-11-13T03:17:26.891Z,8.70
2022-11-13T03:20:12.206Z,5.10
2022-11-13T03:22:57.473Z,3.63
2022-11-13T03:25:42.923Z,3.20
2022-11-13T03:28:28.257Z,3.07
2022-11-13T03:31:14.106Z,2.97
2022-11-13T03:33:59.446Z,2.47
2022-11-13T03:36:44.734Z,3.03
2022-11-13T03:39:29.917Z,2.93
2022-11-13T03:42:15.257Z,5.03
2022-11-13T03:45:00.770Z,4.30
2022-11-13T03:47:46.021Z,11.10
2022-11-13T03:50:31.654Z,12.50
2022-11-13T03:53:16.692Z,9.27
2022-11-13T03:56:02.022Z,6.67
2022-11-13T03:58:49.663Z,5.17
2022-11-13T04:01:35.146Z,3.53
2022-11-13T04:04:20.716Z,4.10
2022-11-13T04:07:06.561Z,7.30
2022-11-13T04:09:51.620Z,12.80
2022-11-13T04:12:37.132Z,12.20
2022-11-13T04:15:27.848Z,11.43
2022-11-13T04:18:13.054Z,11.30
2022-11-13T04:21:00.103Z,9.40
2022-11-13T04:23:48.477Z,9.57
2022-11-13T04:26:33.892Z,6.60
2022-11-13T04:29:19.175Z,9.60
2022-11-13T04:32:07.600Z,7.63
2022-11-13T04:34:53.038Z,8.90
2022-11-13T04:37:38.507Z,12.57
2022-11-13T04:40:23.791Z,11.80
2022-11-13T04:43:09.102Z,13.23
2022-11-13T04:45:54.290Z,13.60
2022-11-13T04:48:39.568Z,12.43
2022-11-13T04:51:24.935Z,12.43
2022-11-13T04:54:10.248Z,13.67
2022-11-13T04:56:55.887Z,16.10
2022-11-13T04:59:40.963Z,19.10
2022-11-13T05:02:26.423Z,22.43
2022-11-13T05:05:11.767Z,23.60
2022-11-13T05:07:57.385Z,23.50
2022-11-13T05:10:50.889Z,23.50
2022-11-13T05:13:36.833Z,23.70
2022-11-13T05:16:21.813Z,26.67
2022-11-13T05:19:07.453Z,25.10
2022-11-13T05:21:52.611Z,25.90
2022-11-13T05:24:38.282Z,23.20
2022-11-13T05:27:23.428Z,24.67
2022-11-13T05:30:09.216Z,22.90
2022-11-13T05:32:54.629Z,26.00
2022-11-13T05:35:39.993Z,27.10
2022-11-13T05:38:25.458Z,23.87
2022-11-13T05:41:15.901Z,24.87
2022-11-13T05:44:01.581Z,22.40
2022-11-13T05:46:46.881Z,22.53
2022-11-13T05:49:38.469Z,23.80
2022-11-13T05:52:29.959Z,24.37
2022-11-13T05:55:15.602Z,22.00
2022-11-13T05:58:00.521Z,24.60
2022-11-13T06:00:46.168Z,25.07
2022-11-13T06:03:31.359Z,22.57
2022-11-13T06:06:18.794Z,23.67
2022-11-13T06:09:05.592Z,23.20
2022-11-13T06:11:51.037Z,19.97
2022-11-13T06:14:36.472Z,27.87
2022-11-13T06:17:21.903Z,24.30
2022-11-13T06:20:07.946Z,19.13
2022-11-13T06:23:01.905Z,22.70
2022-11-13T06:25:47.361Z,23.87
2022-11-13T06:28:33.107Z,18.60
2022-11-13T06:31:27.127Z,18.93
2022-11-13T06:34:12.284Z,17.07
2022-11-13T06:36:58.094Z,15.00
2022-11-13T06:39:43.283Z,16.30
2022-11-13T06:42:28.699Z,13.37
2022-11-13T06:45:14.125Z,14.43
2022-11-13T06:47:59.577Z,10.80
2022-11-13T06:50:48.465Z,13.90
2022-11-13T06:53:34.395Z,13.47
2022-11-13T06:56:19.957Z,13.93
2022-11-13T06:59:08.340Z,13.10
2022-11-13T07:01:54.206Z,20.47
2022-11-13T07:04:39.482Z,15.17
2022-11-13T07:07:25.046Z,14.00
2022-11-13T07:10:10.585Z,10.63
2022-11-13T07:12:59.812Z,9.80
2022-11-13T07:15:54.587Z,9.10
2022-11-13T07:18:39.978Z,18.70
2022-11-13T07:21:25.653Z,15.87
2022-11-13T07:24:16.608Z,13.13
2022-11-13T07:27:12.469Z,16.60
2022-11-13T07:30:03.318Z,15.70
2022-11-13T07:32:49.494Z,17.63
2022-11-13T07:35:41.898Z,23.50
2022-11-13T07:38:27.431Z,18.37
2022-11-13T07:41:12.993Z,19.07
2022-11-13T07:43:58.112Z,16.77
2022-11-13T07:46:43.456Z,18.80
2022-11-13T07:49:28.596Z,18.53
2022-11-13T07:52:13.834Z,18.00
2022-11-13T07:54:59.155Z,20.73
2022-11-13T07:57:44.368Z,22.03
2022-11-13T08:00:31.187Z,21.73
2022-11-13T08:03:17.137Z,16.90
2022-11-13T08:06:05.231Z,16.63
2022-11-13T08:08:50.452Z,20.00
2022-11-13T08:11:36.191Z,18.10
2022-11-13T08:14:21.596Z,63.60
2022-11-13T08:17:07.067Z,32.50
2022-11-13T08:19:52.491Z,19.90
2022-11-13T08:22:37.894Z,19.37
2022-11-13T08:25:25.402Z,22.20
2022-11-13T08:28:13.312Z,32.00
2022-11-13T08:31:01.625Z,22.37
2022-11-13T08:33:46.987Z,36.83
2022-11-13T08:36:32.232Z,27.73
2022-11-13T08:39:17.685Z,22.53
2022-11-13T08:42:03.902Z,16.13
2022-11-13T08:44:49.136Z,16.93
2022-11-13T08:47:34.344Z,17.13
2022-11-13T08:50:19.709Z,19.47
2022-11-13T08:53:05.598Z,17.60
2022-11-13T08:55:50.950Z,22.00
2022-11-13T08:58:36.309Z,22.97
2022-11-13T09:01:22.795Z,23.43
2022-11-13T09:04:08.415Z,25.23
2022-11-13T09:06:53.785Z,19.77
2022-11-13T09:09:39.121Z,20.50
2022-11-13T09:12:24.671Z,19.20
2022-11-13T09:15:11.386Z,19.47
2022-11-13T09:18:00.655Z,26.47
2022-11-13T09:20:48.789Z,37.50
2022-11-13T09:27:16.708Z,23.83
2022-11-13T09:30:34.145Z,21.90
2022-11-13T09:33:19.527Z,21.60
2022-11-13T09:37:42.507Z,23.07
2022-11-13T09:40:36.035Z,23.23
2022-11-13T09:43:44.675Z,23.40
2022-11-13T09:46:43.246Z,23.77
2022-11-13T09:49:41.982Z,25.43
2022-11-13T09:52:40.456Z,23.67
2022-11-13T09:55:36.629Z,29.83
2022-11-13T09:58:39.995Z,25.20
2022-11-13T10:02:13.114Z,25.93
2022-11-13T10:05:33.918Z,26.73
2022-11-13T10:08:55.348Z,25.60
2022-11-13T10:12:17.558Z,26.40
2022-11-13T10:15:48.851Z,26.17
2022-11-13T10:18:45.658Z,22.20
2022-11-13T10:21:48.074Z,22.03
2022-11-13T10:25:14.056Z,19.97
2022-11-13T10:28:48.889Z,21.93
2022-11-13T10:31:53.020Z,20.57
2022-11-13T10:35:08.525Z,23.30
2022-11-13T10:38:26.990Z,19.77
2022-11-13T10:41:22.381Z,18.20
2022-11-13T10:44:40.274Z,16.23
2022-11-13T10:48:02.097Z,19.90
2022-11-13T10:50:36.376Z,17.20
2022-11-13T10:53:22.087Z,16.50
2022-11-13T10:56:37.776Z,16.47
2022-11-13T10:59:32.221Z,16.10
2022-11-13T11:02:25.827Z,18.43
2022-11-13T11:05:23.033Z,13.87
2022-11-13T11:08:13.353Z,13.30
2022-11-13T11:11:18.888Z,12.70
2022-11-13T11:14:51.004Z,12.90
2022-11-13T11:17:55.429Z,13.80
2022-11-13T11:21:04.150Z,13.60
2022-11-13T11:23:57.663Z,15.10
2022-11-13T11:26:49.503Z,14.30
2022-11-13T11:29:36.798Z,15.50
2022-11-13T11:32:39.144Z,13.00
2022-11-13T11:35:49.502Z,11.20
2022-11-13T11:38:45.495Z,20.13
2022-11-13T11:41:40.138Z,17.97
2022-11-13T11:44:31.675Z,13.90
2022-11-13T11:47:18.100Z,13.70
2022-11-13T11:50:05.195Z,16.67
2022-11-13T11:52:59.763Z,14.27
2022-11-13T11:56:31.614Z,13.43
2022-11-13T11:59:29.867Z,13.73
2022-11-13T12:03:02.160Z,12.00
2022-11-13T12:06:20.850Z,13.83
2022-11-13T12:09:13.900Z,13.10
2022-11-13T12:12:18.143Z,11.73
2022-11-13T12:15:29.296Z,14.87
2022-11-13T12:18:22.814Z,14.53
2022-11-13T12:21:11.189Z,14.27
2022-11-13T12:27:53.457Z,13.37
2022-11-13T12:31:14.274Z,18.13
2022-11-13T12:34:21.315Z,12.57
2022-11-13T12:37:19.854Z,12.83
2022-11-13T12:40:42.911Z,13.07
2022-11-13T12:43:42.227Z,15.40
2022-11-13T12:53:56.146Z,17.07
2022-11-13T12:56:41.256Z,12.20
2022-11-13T12:59:35.083Z,13.73
2022-11-13T13:02:37.502Z,12.07
2022-11-13T13:05:35.011Z,13.40
2022-11-13T13:08:41.786Z,12.97
2022-11-13T13:11:48.769Z,10.63
2022-11-13T13:14:57.135Z,12.57
2022-11-13T13:17:42.531Z,12.63
2022-11-13T13:20:31.624Z,10.83
2022-11-13T13:23:46.222Z,12.17
2022-11-13T13:26:31.546Z,16.97
2022-11-13T13:29:20.829Z,13.83
2022-11-13T13:32:52.561Z,18.03
2022-11-13T13:36:15.315Z,15.57
2022-11-13T13:39:38.905Z,20.27
2022-11-13T13:42:46.993Z,23.23
2022-11-13T13:45:46.945Z,18.27
2022-11-13T13:48:32.297Z,18.63
2022-11-13T13:51:34.624Z,21.17
2022-11-13T13:54:23.915Z,20.27
2022-11-13T13:57:13.674Z,25.80
2022-11-13T13:59:58.938Z,25.43
2022-11-13T14:02:55.426Z,21.77
2022-11-13T14:05:40.453Z,22.73
2022-11-13T14:08:27.109Z,25.80
2022-11-13T14:11:29.922Z,25.80
2022-11-13T14:14:23.165Z,26.23
2022-11-13T14:17:10.337Z,28.83
2022-11-13T14:20:00.647Z,24.17
2022-11-13T14:22:55.107Z,27.80
2022-11-13T14:25:44.565Z,31.77
2022-11-13T14:28:32.858Z,26.07
2022-11-13T14:31:18.493Z,30.27
2022-11-13T14:34:10.244Z,32.03
2022-11-13T14:36:55.833Z,32.03
2022-11-13T14:39:45.473Z,31.83
2022-11-13T14:42:37.299Z,35.20
2022-11-13T14:45:24.139Z,35.50
2022-11-13T14:48:25.131Z,37.37
2022-11-13T14:51:24.571Z,39.43
2022-11-13T14:55:08.000Z,38.20
2022-11-13T14:57:49.570Z,40.00
2022-11-13T15:00:36.677Z,39.03
2022-11-13T15:03:22.176Z,43.60
2022-11-13T15:06:27.419Z,43.10
2022-11-13T15:09:15.196Z,45.07
2022-11-13T15:12:00.586Z,44.33
2022-11-13T15:14:45.845Z,39.63
2022-11-13T15:17:31.374Z,52.60
2022-11-13T15:20:19.930Z,49.03
2022-11-13T15:23:05.184Z,47.10
2022-11-13T15:25:50.666Z,52.13
2022-11-13T15:28:41.535Z,46.10
2022-11-13T15:31:33.307Z,52.10
2022-11-13T15:34:18.483Z,52.13
2022-11-13T15:37:10.926Z,51.27
2022-11-13T15:39:56.323Z,54.10
2022-11-13T15:42:43.669Z,58.13
2022-11-13T15:45:28.849Z,60.10
2022-11-13T15:48:14.097Z,57.53
2022-11-13T15:50:59.357Z,57.87
2022-11-13T15:53:55.642Z,55.53
2022-11-13T15:56:40.799Z,51.47
2022-11-13T15:59:26.218Z,55.43
2022-11-13T16:02:11.495Z,53.93
2022-11-13T16:04:57.399Z,59.27
2022-11-13T16:07:43.118Z,57.40
2022-11-13T16:10:28.474Z,58.87
2022-11-13T16:13:13.972Z,63.13
2022-11-13T16:16:00.146Z,60.80
2022-11-13T16:18:46.124Z,61.17
2022-11-13T16:21:31.541Z,58.80
2022-11-13T16:24:19.916Z,56.43
2022-11-13T16:27:09.275Z,60.97
2022-11-13T16:29:54.536Z,62.00
2022-11-13T16:32:39.853Z,64.37
2022-11-13T16:35:25.209Z,69.43
2022-11-13T16:38:26.428Z,65.37
2022-11-13T16:41:16.657Z,60.90
2022-11-13T16:44:01.704Z,57.87
2022-11-13T16:46:49.574Z,67.67
2022-11-13T16:49:34.830Z,55.90
2022-11-13T16:52:20.232Z,58.53
2022-11-13T16:55:06.780Z,62.27
2022-11-13T16:57:54.971Z,88.20
2022-11-13T17:00:40.184Z,65.97
2022-11-13T17:06:31.772Z,55.50
2022-11-13T17:09:16.710Z,45.63
2022-11-13T17:12:02.512Z,54.53
2022-11-13T17:14:47.998Z,50.73
2022-11-13T17:17:33.277Z,51.83
2022-11-13T17:20:43.992Z,52.53
2022-11-13T17:23:29.953Z,52.07
2022-11-13T17:26:15.546Z,51.37
2022-11-13T17:29:02.102Z,55.00
2022-11-13T17:31:47.817Z,55.30
2022-11-13T17:34:43.607Z,50.83
2022-11-13T17:37:28.910Z,52.17
2022-11-13T17:40:28.056Z,74.87
2022-11-13T17:43:15.305Z,57.07
2022-11-13T17:46:00.717Z,60.70
2022-11-13T17:48:52.973Z,53.83
2022-11-13T17:51:46.219Z,58.37
2022-11-13T17:54:39.283Z,56.97
2022-11-13T17:57:27.096Z,60.37
2022-11-13T18:00:25.162Z,61.00
2022-11-13T18:03:10.517Z,59.30
2022-11-13T18:05:56.430Z,60.63
2022-11-13T18:08:44.890Z,55.40
2022-11-13T18:11:30.712Z,57.30
2022-11-13T18:14:15.942Z,65.23
2022-11-13T18:17:10.298Z,60.50
2022-11-13T18:22:55.697Z,67.83
2022-11-13T18:25:46.409Z,66.70
2022-11-13T18:29:01.905Z,65.57
2022-11-13T18:32:00.417Z,68.27
2022-11-13T18:34:59.467Z,75.23
2022-11-13T18:38:04.208Z,73.77
2022-11-13T18:44:04.276Z,74.57
2022-11-13T18:47:07.949Z,67.67
2022-11-13T18:50:01.953Z,73.10
2022-11-13T18:52:55.225Z,68.07
2022-11-13T18:55:40.533Z,66.10
2022-11-13T18:58:25.972Z,70.43
2022-11-13T19:01:22.176Z,65.43
2022-11-13T19:04:26.124Z,75.13
2022-11-13T19:07:18.038Z,70.30
2022-11-13T19:10:04.157Z,69.87
2022-11-13T19:13:15.205Z,70.23
2022-11-13T19:16:12.739Z,68.23
2022-11-13T19:19:00.030Z,69.50
2022-11-13T19:21:45.896Z,66.30
2022-11-13T19:24:34.471Z,71.63
2022-11-13T19:27:19.625Z,69.47
2022-11-13T19:30:05.428Z,64.87
2022-11-13T19:32:56.106Z,68.40
2022-11-13T19:35:43.222Z,68.57
2022-11-13T19:38:32.233Z,70.50
2022-11-13T19:41:19.547Z,75.40
2022-11-13T19:44:15.608Z,72.83
2022-11-13T19:47:07.374Z,77.73
2022-11-13T19:49:55.783Z,68.73
2022-11-13T19:52:48.907Z,70.93
2022-11-13T19:55:34.821Z,77.90
2022-11-13T19:59:10.895Z,77.53
2022-11-13T20:02:03.999Z,72.77
2022-11-13T20:04:49.306Z,76.27
2022-11-13T20:07:34.999Z,63.37
2022-11-13T20:10:24.282Z,65.57
2022-11-13T20:13:09.705Z,75.43
2022-11-13T20:15:55.215Z,76.60
2022-11-13T20:18:41.751Z,69.27
2022-11-13T20:21:28.699Z,70.37
2022-11-13T20:24:13.897Z,68.47
2022-11-13T20:26:59.238Z,65.10
2022-11-13T20:29:44.772Z,67.73
2022-11-13T20:32:30.304Z,73.97
2022-11-13T20:35:24.921Z,69.53
2022-11-13T20:38:10.439Z,71.80
2022-11-13T20:40:56.105Z,65.93
2022-11-13T20:43:44.420Z,73.67
2022-11-13T20:46:30.618Z,79.63
2022-11-13T20:49:16.205Z,74.97
2022-11-13T20:52:03.296Z,69.70
2022-11-13T20:54:48.629Z,89.47
2022-11-13T20:57:38.199Z,73.83
2022-11-13T21:00:26.233Z,79.13
2022-11-13T21:03:11.541Z,71.07
2022-11-13T21:05:57.366Z,76.20
2022-11-13T21:08:43.251Z,71.83
2022-11-13T21:11:29.538Z,75.63
2022-11-13T21:14:14.658Z,66.67
2022-11-13T21:17:05.580Z,68.60
2022-11-13T21:19:55.003Z,69.10
2022-11-13T21:22:41.896Z,62.90
2022-11-13T21:25:27.416Z,66.33
2022-11-13T21:28:19.513Z,68.23
2022-11-13T21:31:11.143Z,73.73
2022-11-13T21:33:57.489Z,72.30
2022-11-13T21:36:42.717Z,68.60
2022-11-13T21:39:28.198Z,78.00
2022-11-13T21:42:13.551Z,69.90
2022-11-13T21:45:01.808Z,69.90
2022-11-13T21:47:54.817Z,81.53
2022-11-13T21:50:39.939Z,65.47
2022-11-13T21:53:25.402Z,66.50
2022-11-13T21:56:15.912Z,73.93
2022-11-13T21:59:01.702Z,66.07
2022-11-13T22:01:47.204Z,62.47
2022-11-13T22:04:35.689Z,72.93
2022-11-13T22:07:21.126Z,69.30
2022-11-13T22:10:08.512Z,66.50
2022-11-13T22:12:55.143Z,71.87
2022-11-13T22:15:40.620Z,67.27
2022-11-13T22:18:25.887Z,72.23
2022-11-13T22:21:08.306Z,67.20
2022-11-13T22:24:07.346Z,72.43
2022-11-13T22:26:52.627Z,77.63
2022-11-13T22:29:38.111Z,73.70
2022-11-13T22:32:23.403Z,67.13
2022-11-13T22:35:09.163Z,76.63
2022-11-13T22:37:54.168Z,72.03
2022-11-13T22:40:39.624Z,70.50
2022-11-13T22:43:25.301Z,70.87
2022-11-13T22:46:19.194Z,70.97
2022-11-13T22:49:05.707Z,67.80
2022-11-13T22:51:53.389Z,69.80
2022-11-13T22:54:58.926Z,66.73
2022-11-13T22:57:54.646Z,69.77
2022-11-13T23:00:42.535Z,70.00
2022-11-13T23:03:45.018Z,69.30
2022-11-13T23:06:41.548Z,65.43
2022-11-13T23:09:49.636Z,65.00
2022-11-13T23:12:38.225Z,67.13
2022-11-13T23:15:29.732Z,64.90
2022-11-13T23:18:27.799Z,64.50
2022-11-13T23:21:17.786Z,62.17
2022-11-13T23:24:03.741Z,57.77
2022-11-13T23:30:46.929Z,61.73
2022-11-13T23:33:50.331Z,58.47
2022-11-13T23:36:42.209Z,61.13
2022-11-13T23:39:36.634Z,58.50
2022-11-13T23:46:14.831Z,64.77
2022-11-13T23:49:39.877Z,59.10
2022-11-13T23:52:55.277Z,63.27
2022-11-13T23:55:41.526Z,59.83
2022-11-13T23:58:46.172Z,70.67
